Time;durP1;ratioP1;P1;durP2;ratioP2;P2;SDS_P1;SDS_P2;PMS_P1;PMS_P2;Temp;Humidity;BMP_temperature;BMP_pressure;BME280_temperature;BME280_humidity;BME280_pressure;Samples;Min_cycle;Max_cycle;Signal;HPM_P1;HPM_P2
2022/05/18 00:01:14;;;;;;;;;;;;;;;;;;5096770;28;28521;-84
2022/05/18 00:03:40;;;;;;;;;;;;;;;;;;5097100;27;28307;-84
2022/05/18 00:06:06;;;;;;;;;;;;;;;;;;5097142;28;28265;-82
2022/05/18 00:08:36;;;;;;;;;;;;;;;;;;5097047;27;28581;-81
2022/05/18 00:11:01;;;;;;;;;;;;;;;;;;5096702;28;29246;-82
2022/05/18 00:13:26;;;;;;;;;;;;;;;;;;5097299;27;27870;-81
2022/05/18 00:15:51;;;;;;;;;;;;;;;;;;5096782;27;28469;-82
2022/05/18 00:18:16;;;;;;;;;;;;;;;;;;5097194;27;28322;-82
2022/05/18 00:20:41;;;;;;;;;;;;;;;;;;5096591;27;29410;-83
2022/05/18 00:23:06;;;;;;;;;;;;;;;;;;5096701;27;28289;-83
2022/05/18 00:25:31;;;;;;;;;;;;;;;;;;5096830;28;28422;-84
2022/05/18 00:27:56;;;;;;;;;;;;;;;;;;5096922;28;28434;-83
2022/05/18 00:30:22;;;;;;;;;;;;;;;;;;5096652;28;29327;-83
2022/05/18 00:32:47;;;;;;;;;;;;;;;;;;5096505;28;28488;-82
2022/05/18 00:35:12;;;;;;;;;;;;;;;;;;5096770;28;28410;-82
2022/05/18 00:37:37;;;;;;;;;;;;;;;;;;5096510;28;27946;-82
2022/05/18 00:40:02;;;;;;;;;;;;;;;;;;5096307;28;28670;-81
2022/05/18 00:42:27;;;;;;;;;;;;;;;;;;5096544;27;28466;-82
2022/05/18 00:44:52;;;;;;;;;;;;;;;;;;5096272;28;27764;-81
2022/05/18 00:47:17;;;;;;;;;;;;;;;;;;5096672;28;28389;-81
2022/05/18 00:49:42;;;;;;;;;;;;;;;;;;5096260;27;28480;-81
2022/05/18 00:52:08;;;;;;;;;;;;;;;;;;5096021;27;28386;-81
2022/05/18 00:54:33;;;;;;;;;;;;;;;;;;5096374;28;28503;-81
2022/05/18 00:56:58;;;;;;;;;;;;;;;;;;5096290;28;28547;-81
2022/05/18 00:59:23;;;;;;;;;;;;;;;;;;5096172;28;29484;-81
2022/05/18 01:01:48;;;;;;;;;;;;;;;;;;5096007;28;28399;-81
2022/05/18 01:04:13;;;;;;;;;;;;;;;;;;5096195;28;28325;-81
2022/05/18 01:06:38;;;;;;;;;;;;;;;;;;5096452;28;28411;-81
2022/05/18 01:09:03;;;;;;;;;;;;;;;;;;5095459;28;29354;-81
2022/05/18 01:11:28;;;;;;;;;;;;;;;;;;5096144;28;28280;-81
2022/05/18 01:13:54;;;;;;;;;;;;;;;;;;5095837;27;28434;-81
2022/05/18 01:16:19;;;;;;;;;;;;;;;;;;5095892;28;28462;-81
2022/05/18 01:18:44;;;;;;;;;;;;;;;;;;5095949;28;29251;-81
2022/05/18 01:21:09;;;;;;;;;;;;;;;;;;5095727;27;27862;-81
2022/05/18 01:23:34;;;;;;;;;;;;;;;;;;5096063;27;28237;-81
2022/05/18 01:25:59;;;;;;;;;;;;;;;;;;5095848;27;28335;-81
2022/05/18 01:28:24;;;;;;;;;;;;;;;;;;5095651;28;29081;-81
2022/05/18 01:30:49;;;;;;;;;;;;;;;;;;5095566;28;28490;-81
2022/05/18 01:33:15;;;;;;;;;;;;;;;;;;5095660;28;28340;-81
2022/05/18 01:35:40;;;;;;;;;;;;;;;;;;5095822;28;28480;-81
2022/05/18 01:38:06;;;;;;;;;;;;;;;;;;5095518;28;29449;-81
2022/05/18 01:40:31;;;;;;;;;;;;;;;;;;5095687;28;28388;-81
2022/05/18 01:42:56;;;;;;;;;;;;;;;;;;5095706;28;28344;-81
2022/05/18 01:45:21;;;;;;;;;;;;;;;;;;5095804;28;28582;-81
2022/05/18 01:47:48;;;;;;;;;;;;;;;;;;5095583;28;29331;-81
2022/05/18 01:50:13;;;;;;;;;;;;;;;;;;5095594;28;28284;-81
2022/05/18 01:52:38;;;;;;;;;;;;;;;;;;5095650;28;28311;-81
2022/05/18 01:55:03;;;;;;;;;;;;;;;;;;5095705;27;28436;-81
2022/05/18 01:57:28;;;;;;;;;;;;;;;;;;5095367;28;28555;-81
2022/05/18 01:59:54;;;;;;;;;;;;;;;;;;5095431;28;28374;-81
2022/05/18 02:02:19;;;;;;;;;;;;;;;;;;5095345;27;28387;-81
2022/05/18 02:04:44;;;;;;;;;;;;;;;;;;5095696;27;28343;-81
2022/05/18 02:07:09;;;;;;;;;;;;;;;;;;5095196;28;28405;-81
2022/05/18 02:09:34;;;;;;;;;;;;;;;;;;5095248;27;28412;-81
2022/05/18 02:11:59;;;;;;;;;;;;;;;;;;5095415;28;28456;-81
2022/05/18 02:14:24;;;;;;;;;;;;;;;;;;5095367;27;28327;-88
2022/05/18 02:16:49;;;;;;;;;;;;;;;;;;5095134;28;29558;-81
2022/05/18 02:19:16;;;;;;;;;;;;;;;;;;5095126;27;28406;-81
2022/05/18 02:21:41;;;;;;;;;;;;;;;;;;5097076;27;28458;-81
2022/05/18 02:24:06;;;;;;;;;;;;;;;;;;5098894;27;28444;-81
2022/05/18 02:26:31;;;;;;;;;;;;;;;;;;5098652;28;28391;-81
2022/05/18 02:28:56;;;;;;;;;;;;;;;;;;5098641;27;28442;-80
2022/05/18 02:31:21;;;;;;;;;;;;;;;;;;5098460;27;28545;-81
2022/05/18 02:33:46;;;;;;;;;;;;;;;;;;5098758;28;28450;-81
2022/05/18 02:36:12;;;;;;;;;;;;;;;;;;5098266;28;28365;-81
2022/05/18 02:38:37;;;;;;;;;;;;;;;;;;5098196;28;28482;-81
2022/05/18 02:41:02;;;;;;;;;;;;;;;;;;5098568;27;28355;-81
2022/05/18 02:43:28;;;;;;;;;;;;;;;;;;5098407;28;28561;-81
2022/05/18 02:45:53;;;;;;;;;;;;;;;;;;5098331;27;28699;-81
2022/05/18 02:48:18;;;;;;;;;;;;;;;;;;5098181;28;28379;-81
2022/05/18 02:50:47;;;;;;;;;;;;;;;;;;5098248;28;28370;-81
2022/05/18 02:53:12;;;;;;;;;;;;;;;;;;5098275;28;28392;-81
2022/05/18 02:58:21;;;;;;;;;;;;;;;;;;5098203;27;28331;-81
2022/05/18 03:00:46;;;;;;;;;;;;;;;;;;5097999;27;28296;-80
2022/05/18 03:03:12;;;;;;;;;;;;;;;;;;5097908;28;28592;-81
2022/05/18 03:05:37;;;;;;;;;;;;;;;;;;5097842;27;29662;-81
2022/05/18 03:08:02;;;;;;;;;;;;;;;;;;5080225;28;28466;-81
2022/05/18 03:10:28;;;;;;;;;;;;;;;;;;5077366;28;28292;-81
2022/05/18 03:12:53;;;;;;;;;;;;;;;;;;5077732;28;28361;-81
2022/05/18 03:15:19;;;;;;;;;;;;;;;;;;5077343;28;28292;-81
2022/05/18 03:17:44;;;;;;;;;;;;;;;;;;5077367;28;28537;-81
2022/05/18 03:23:33;;;;;;;;;;;;;;;;;;5077377;28;28305;-81
2022/05/18 03:25:40;;;;;;;;;;;;;;;;;;5077256;28;28256;-81
2022/05/18 03:28:05;;;;;;;;;;;;;;;;;;5077127;28;28344;-81
2022/05/18 03:30:30;;;;;;;;;;;;;;;;;;5077582;28;28320;-81
2022/05/18 03:32:56;;;;;;;;;;;;;;;;;;5077062;28;28328;-81
2022/05/18 03:35:21;;;;;;;;;;;;;;;;;;5077175;28;28580;-80
2022/05/18 03:37:46;;;;;;;;;;;;;;;;;;5077207;28;28392;-81
2022/05/18 03:40:11;;;;;;;;;;;;;;;;;;5077364;28;28385;-81
2022/05/18 03:42:36;;;;;;;;;;;;;;;;;;5077382;28;28560;-81
2022/05/18 03:45:01;;;;;;;;;;;;;;;;;;5076924;28;29137;-80
2022/05/18 03:47:26;;;;;;;;;;;;;;;;;;5077137;28;28379;-81
2022/05/18 03:49:52;;;;;;;;;;;;;;;;;;5076873;28;28414;-80
2022/05/18 03:52:17;;;;;;;;;;;;;;;;;;5076964;28;28383;-81
2022/05/18 03:54:42;;;;;;;;;;;;;;;;;;5077005;28;28709;-80
2022/05/18 03:57:09;;;;;;;;;;;;;;;;;;5076886;28;28340;-80
2022/05/18 03:59:35;;;;;;;;;;;;;;;;;;5076825;28;28411;-80
2022/05/18 04:02:00;;;;;;;;;;;;;;;;;;5076732;28;28233;-80
2022/05/18 04:04:25;;;;;;;;;;;;;;;;;;5076679;28;28446;-80
2022/05/18 04:06:51;;;;;;;;;;;;;;;;;;5076712;28;28392;-80
2022/05/18 04:09:17;;;;;;;;;;;;;;;;;;5076478;28;28233;-80
2022/05/18 04:11:42;;;;;;;;;;;;;;;;;;5076806;28;28325;-81
2022/05/18 04:14:07;;;;;;;;;;;;;;;;;;5076558;28;29702;-80
2022/05/18 04:16:32;;;;;;;;;;;;;;;;;;5076797;28;32178;-81
2022/05/18 04:18:57;;;;;;;;;;;;;;;;;;5076558;28;28646;-81
2022/05/18 04:21:22;;;;;;;;;;;;;;;;;;5076697;28;28518;-80
2022/05/18 04:23:49;;;;;;;;;;;;;;;;;;5076660;28;29695;-80
2022/05/18 04:26:14;;;;;;;;;;;;;;;;;;5076242;28;28371;-81
2022/05/18 04:28:39;;;;;;;;;;;;;;;;;;5076590;28;28409;-80
2022/05/18 04:31:05;;;;;;;;;;;;;;;;;;5076433;28;28467;-80
2022/05/18 04:33:30;;;;;;;;;;;;;;;;;;5075962;28;28534;-80
2022/05/18 04:35:55;;;;;;;;;;;;;;;;;;5076387;28;28474;-81
2022/05/18 04:38:20;;;;;;;;;;;;;;;;;;5076088;28;28407;-81
2022/05/18 04:40:45;;;;;;;;;;;;;;;;;;5076503;28;28391;-81
2022/05/18 04:43:10;;;;;;;;;;;;;;;;;;5075612;28;28441;-80
2022/05/18 04:45:36;;;;;;;;;;;;;;;;;;5075856;28;28386;-81
2022/05/18 04:48:01;;;;;;;;;;;;;;;;;;5076092;28;28383;-81
2022/05/18 04:50:26;;;;;;;;;;;;;;;;;;5076182;28;28344;-80
2022/05/18 04:52:51;;;;;;;;;;;;;;;;;;5076138;28;28586;-80
2022/05/18 04:55:16;;;;;;;;;;;;;;;;;;5075930;28;28324;-80
2022/05/18 04:57:41;;;;;;;;;;;;;;;;;;5076001;28;28371;-80
2022/05/18 05:00:06;;;;;;;;;;;;;;;;;;5075644;28;28530;-81
2022/05/18 05:02:32;;;;;;;;;;;;;;;;;;5075580;28;28486;-80
2022/05/18 05:04:57;;;;;;;;;;;;;;;;;;5075613;28;28443;-80
2022/05/18 05:07:22;;;;;;;;;;;;;;;;;;5075745;28;28464;-81
2022/05/18 05:09:47;;;;;;;;;;;;;;;;;;5075741;28;28419;-80
2022/05/18 05:12:12;;;;;;;;;;;;;;;;;;5075653;28;28915;-80
2022/05/18 05:14:37;;;;;;;;;;;;;;;;;;5075518;28;28573;-81
2022/05/18 05:17:02;;;;;;;;;;;;;;;;;;5075553;28;28392;-80
2022/05/18 05:19:27;;;;;;;;;;;;;;;;;;5075421;28;28507;-80
2022/05/18 05:21:53;;;;;;;;;;;;;;;;;;5075494;28;28440;-80
2022/05/18 05:24:18;;;;;;;;;;;;;;;;;;5075044;28;28486;-81
2022/05/18 05:26:43;;;;;;;;;;;;;;;;;;5075388;28;28365;-81
2022/05/18 05:29:08;;;;;;;;;;;;;;;;;;5075659;28;28474;-81
2022/05/18 05:31:33;;;;;;;;;;;;;;;;;;5075055;28;28407;-79
2022/05/18 05:33:59;;;;;;;;;;;;;;;;;;5075314;28;28319;-81
2022/05/18 05:36:24;;;;;;;;;;;;;;;;;;5075302;28;28313;-82
2022/05/18 05:38:49;;;;;;;;;;;;;;;;;;5075098;28;28416;-83
2022/05/18 05:41:14;;;;;;;;;;;;;;;;;;5075000;28;29048;-80
2022/05/18 05:43:41;;;;;;;;;;;;;;;;;;5075053;28;28253;-80
2022/05/18 05:46:06;;;;;;;;;;;;;;;;;;5075435;28;28367;-80
2022/05/18 05:48:32;;;;;;;;;;;;;;;;;;5074857;28;28381;-88
2022/05/18 05:50:57;;;;;;;;;;;;;;;;;;5075044;28;29353;-82
2022/05/18 05:53:22;;;;;;;;;;;;;;;;;;5075109;28;28301;-85
2022/05/18 05:55:47;;;;;;;;;;;;;;;;;;5075739;28;28250;-86
2022/05/18 05:58:12;;;;;;;;;;;;;;;;;;5079260;28;28470;-82
2022/05/18 06:00:37;;;;;;;;;;;;;;;;;;5078182;28;28508;-86
2022/05/18 06:03:03;;;;;;;;;;;;;;;;;;5078577;28;28479;-86
2022/05/18 06:05:28;;;;;;;;;;;;;;;;;;5078733;28;28321;-87
2022/05/18 06:07:53;;;;;;;;;;;;;;;;;;5078578;28;28483;-87
2022/05/18 06:10:18;;;;;;;;;;;;;;;;;;5078709;28;29549;-87
2022/05/18 06:12:43;;;;;;;;;;;;;;;;;;5078356;28;28325;-86
2022/05/18 06:15:08;;;;;;;;;;;;;;;;;;5078506;28;28306;-86
2022/05/18 06:17:33;;;;;;;;;;;;;;;;;;5078538;28;28283;-86
2022/05/18 06:19:58;;;;;;;;;;;;;;;;;;5078134;28;28703;-86
2022/05/18 06:22:25;;;;;;;;;;;;;;;;;;5078462;28;28464;-86
2022/05/18 06:24:51;;;;;;;;;;;;;;;;;;5078319;28;28474;-87
2022/05/18 06:27:16;;;;;;;;;;;;;;;;;;5078543;28;28443;-87
2022/05/18 06:29:41;;;;;;;;;;;;;;;;;;5077957;28;29458;-85
2022/05/18 06:32:07;;;;;;;;;;;;;;;;;;5078060;28;28367;-88
2022/05/18 06:34:32;;;;;;;;;;;;;;;;;;5078130;28;28387;-86
2022/05/18 06:36:57;;;;;;;;;;;;;;;;;;5078259;28;28487;-86
2022/05/18 06:39:22;;;;;;;;;;;;;;;;;;5078341;28;28403;-86
2022/05/18 06:41:47;;;;;;;;;;;;;;;;;;5078072;28;28412;-86
2022/05/18 06:44:12;;;;;;;;;;;;;;;;;;5078020;28;28427;-86
2022/05/18 06:46:37;;;;;;;;;;;;;;;;;;5078334;28;28485;-86
2022/05/18 06:49:03;;;;;;;;;;;;;;;;;;5077781;28;29368;-88
2022/05/18 06:51:28;;;;;;;;;;;;;;;;;;5078100;28;28502;-93
2022/05/18 06:53:53;;;;;;;;;;;;;;;;;;5060269;28;28363;-89
2022/05/18 06:56:19;;;;;;;;;;;;;;;;;;5078167;28;28404;-91
2022/05/18 06:58:45;;;;;;;;;;;;;;;;;;5078029;28;28402;-90
2022/05/18 07:01:10;;;;;;;;;;;;;;;;;;5077934;28;28431;-90
2022/05/18 07:03:35;;;;;;;;;;;;;;;;;;5059568;28;28313;-88
2022/05/18 07:06:00;;;;;;;;;;;;;;;;;;5078064;28;28246;-88
2022/05/18 07:08:25;;;;;;;;;;;;;;;;;;5077910;28;28564;-90
2022/05/18 07:10:50;;;;;;;;;;;;;;;;;;5078397;28;28316;-88
2022/05/18 07:13:17;;;;;;;;;;;;;;;;;;5077910;28;28237;-89
2022/05/18 07:15:42;;;;;;;;;;;;;;;;;;5078137;28;28449;-92
2022/05/18 07:18:07;;;;;;;;;;;;;;;;;;5059825;28;28539;-89
2022/05/18 07:20:32;;;;;;;;;;;;;;;;;;5077813;28;28405;-90
2022/05/18 07:22:57;;;;;;;;;;;;;;;;;;5059719;28;28384;-94
2022/05/18 07:25:22;;;;;;;;;;;;;;;;;;5059776;28;28619;-89
2022/05/18 07:27:48;;;;;;;;;;;;;;;;;;5078011;28;28304;-90
2022/05/18 07:30:13;;;;;;;;;;;;;;;;;;5077631;28;28253;-90
2022/05/18 07:32:38;;;;;;;;;;;;;;;;;;5076078;28;28355;-88
2022/05/18 07:35:03;;;;;;;;;;;;;;;;;;5080428;28;35140;-90
2022/05/18 07:37:29;;;;;;;;;;;;;;;;;;5074357;28;28812;-89
2022/05/18 07:39:54;;;;;;;;;;;;;;;;;;5074084;28;28450;-92
2022/05/18 07:42:19;;;;;;;;;;;;;;;;;;5075408;28;28392;-90
2022/05/18 07:44:44;;;;;;;;;;;;;;;;;;5057390;28;28581;-90
2022/05/18 07:47:09;;;;;;;;;;;;;;;;;;5057108;28;30336;-90
2022/05/18 07:49:34;;;;;;;;;;;;;;;;;;5076295;28;28562;-90
2022/05/18 07:52:00;;;;;;;;;;;;;;;;;;5075697;28;28461;-92
2022/05/18 07:54:25;;;;;;;;;;;;;;;;;;5057070;28;28311;-90
2022/05/18 07:56:50;;;;;;;;;;;;;;;;;;5056882;28;31020;-91
2022/05/18 07:59:15;;;;;;;;;;;;;;;;;;5075245;28;28390;-91
2022/05/18 08:01:40;;;;;;;;;;;;;;;;;;5075202;28;28491;-91
2022/05/18 08:04:05;;;;;;;;;;;;;;;;;;5056743;28;28665;-91
2022/05/18 08:06:30;;;;;;;;;;;;;;;;;;5056832;28;30682;-91
2022/05/18 08:08:56;;;;;;;;;;;;;;;;;;5075062;28;28382;-90
2022/05/18 08:16:49;;;;;;;;;;;;;;;;;;5076580;28;28599;-92
2022/05/18 08:19:17;;;;;;;;;;;;;;;;;;5087197;28;28380;-95
2022/05/18 08:21:43;;;;;;;;;;;;;;;;;;5097846;28;28543;-92
2022/05/18 08:24:08;;;;;;;;;;;;;;;;;;5072126;28;28700;-92
2022/05/18 08:26:33;;;;;;;;;;;;;;;;;;5095932;27;28841;-94
2022/05/18 08:28:58;;;;;;;;;;;;;;;;;;5080089;28;28549;-93
2022/05/18 08:31:23;;;;;;;;;;;;;;;;;;5084763;28;28552;-93
2022/05/18 08:33:49;;;;;;;;;;;;;;;;;;5076116;28;28434;-93
2022/05/18 08:36:14;;;;;;;;;;;;;;;;;;5075957;28;28783;-92
2022/05/18 08:38:39;;;;;;;;;;;;;;;;;;5091570;27;28520;-92
2022/05/18 08:41:04;;;;;;;;;;;;;;;;;;5057557;28;28392;-93
2022/05/18 08:43:29;;;;;;;;;;;;;;;;;;5064374;28;28389;-94
2022/05/18 08:45:54;;;;;;;;;;;;;;;;;;5056338;28;28378;-93
2022/05/18 08:48:20;;;;;;;;;;;;;;;;;;5062200;28;28475;-93
2022/05/18 08:50:45;;;;;;;;;;;;;;;;;;5073774;28;28336;-93
2022/05/18 08:53:10;;;;;;;;;;;;;;;;;;5066446;28;28510;-93
2022/05/18 08:55:36;;;;;;;;;;;;;;;;;;5065772;28;29740;-92
2022/05/18 08:58:01;;;;;;;;;;;;;;;;;;5077106;28;28505;-93
2022/05/18 09:00:26;;;;;;;;;;;;;;;;;;5068831;28;28601;-91
2022/05/18 09:02:51;;;;;;;;;;;;;;;;;;5096220;27;28271;-92
2022/05/18 09:05:16;;;;;;;;;;;;;;;;;;5077162;28;34503;-93
2022/05/18 09:07:41;;;;;;;;;;;;;;;;;;5075354;28;27876;-91
2022/05/18 09:10:12;;;;;;;;;;;;;;;;;;5075576;28;28395;-95
2022/05/18 09:12:38;;;;;;;;;;;;;;;;;;5076400;28;28371;-93
2022/05/18 09:15:07;;;;;;;;;;;;;;;;;;5075784;28;28420;-92
2022/05/18 09:17:32;;;;;;;;;;;;;;;;;;5093944;28;28335;-91
2022/05/18 09:19:57;;;;;;;;;;;;;;;;;;5077290;28;28486;-93
2022/05/18 09:22:22;;;;;;;;;;;;;;;;;;5077326;28;28377;-92
2022/05/18 09:24:49;;;;;;;;;;;;;;;;;;5095349;28;28374;-91
2022/05/18 09:27:14;;;;;;;;;;;;;;;;;;5095349;27;28547;-92
2022/05/18 09:29:39;;;;;;;;;;;;;;;;;;5072580;28;28496;-92
2022/05/18 09:32:04;;;;;;;;;;;;;;;;;;5055926;28;28646;-91
2022/05/18 09:34:29;;;;;;;;;;;;;;;;;;5061215;28;28336;-90
2022/05/18 09:36:54;;;;;;;;;;;;;;;;;;5070383;28;27826;-91
2022/05/18 09:39:20;;;;;;;;;;;;;;;;;;5070313;28;28465;-91
2022/05/18 09:41:45;;;;;;;;;;;;;;;;;;5054801;28;28486;-91
2022/05/18 09:44:10;;;;;;;;;;;;;;;;;;5072944;28;28519;-91
2022/05/18 09:46:35;;;;;;;;;;;;;;;;;;5072577;28;28576;-90
2022/05/18 09:49:00;;;;;;;;;;;;;;;;;;5073121;28;28470;-91
2022/05/18 09:51:26;;;;;;;;;;;;;;;;;;5080517;28;28373;-89
2022/05/18 09:53:54;;;;;;;;;;;;;;;;;;5060237;28;28553;-91
2022/05/18 09:56:19;;;;;;;;;;;;;;;;;;5080531;28;28497;-90
2022/05/18 09:58:45;;;;;;;;;;;;;;;;;;5082749;28;27863;-90
2022/05/18 10:09:21;;;;;;;;;;;;;;;;;;5095387;28;28484;-90
2022/05/18 10:11:46;;;;;;;;;;;;;;;;;;5069825;28;28525;-89
2022/05/18 10:14:11;;;;;;;;;;;;;;;;;;5070055;28;30714;-90
2022/05/18 10:16:36;;;;;;;;;;;;;;;;;;5084904;28;28382;-87
2022/05/18 10:19:01;;;;;;;;;;;;;;;;;;5095178;27;28454;-88
2022/05/18 10:21:27;;;;;;;;;;;;;;;;;;5095406;28;28422;-88
2022/05/18 10:24:13;;;;;;;;;;;;;;;;;;5094945;27;28521;-90
2022/05/18 10:26:38;;;;;;;;;;;;;;;;;;5094238;28;28430;-87
2022/05/18 10:29:03;;;;;;;;;;;;;;;;;;5095295;28;28518;-88
2022/05/18 10:31:28;;;;;;;;;;;;;;;;;;5091691;27;28435;-88
2022/05/18 10:33:57;;;;;;;;;;;;;;;;;;5073500;28;28856;-88
2022/05/18 10:36:22;;;;;;;;;;;;;;;;;;5074861;28;28520;-92
2022/05/18 10:38:48;;;;;;;;;;;;;;;;;;5074611;28;28925;-89
2022/05/18 10:41:13;;;;;;;;;;;;;;;;;;5074579;28;28456;-89
2022/05/18 10:43:38;;;;;;;;;;;;;;;;;;5077471;28;29064;-86
2022/05/18 10:46:03;;;;;;;;;;;;;;;;;;5077686;28;28320;-86
2022/05/18 10:48:28;;;;;;;;;;;;;;;;;;5078278;28;28286;-85
2022/05/18 10:50:54;;;;;;;;;;;;;;;;;;5077685;28;28350;-88
2022/05/18 10:53:19;;;;;;;;;;;;;;;;;;5077235;28;29420;-86
2022/05/18 10:55:44;;;;;;;;;;;;;;;;;;5077638;28;28164;-88
2022/05/18 10:58:09;;;;;;;;;;;;;;;;;;5076985;28;28844;-86
2022/05/18 11:00:35;;;;;;;;;;;;;;;;;;5078086;28;28430;-85
2022/05/18 11:03:00;;;;;;;;;;;;;;;;;;5077759;28;28459;-87
2022/05/18 11:05:25;;;;;;;;;;;;;;;;;;5077884;28;28551;-90
2022/05/18 11:07:50;;;;;;;;;;;;;;;;;;5077983;28;27822;-85
2022/05/18 11:10:15;;;;;;;;;;;;;;;;;;5077731;28;28496;-87
2022/05/18 11:12:40;;;;;;;;;;;;;;;;;;5077768;28;28470;-87
2022/05/18 11:15:06;;;;;;;;;;;;;;;;;;5079042;28;28398;-91
2022/05/18 11:17:31;;;;;;;;;;;;;;;;;;5075941;28;28348;-89
2022/05/18 11:19:56;;;;;;;;;;;;;;;;;;5077593;28;28332;-88
2022/05/18 11:22:21;;;;;;;;;;;;;;;;;;5077988;28;28539;-89
2022/05/18 11:24:46;;;;;;;;;;;;;;;;;;5092030;27;28556;-84
2022/05/18 11:27:11;;;;;;;;;;;;;;;;;;5096102;27;28456;-86
2022/05/18 11:29:36;;;;;;;;;;;;;;;;;;5088928;28;28309;-88
2022/05/18 11:32:01;;;;;;;;;;;;;;;;;;5077192;28;28403;-86
2022/05/18 11:34:27;;;;;;;;;;;;;;;;;;5077594;28;28399;-88
2022/05/18 11:36:52;;;;;;;;;;;;;;;;;;5083816;28;28417;-94
2022/05/18 11:39:17;;;;;;;;;;;;;;;;;;5098509;27;28477;-90
2022/05/18 11:41:42;;;;;;;;;;;;;;;;;;5078021;28;28353;-86
2022/05/18 11:44:07;;;;;;;;;;;;;;;;;;5076743;28;28443;-89
2022/05/18 11:46:32;;;;;;;;;;;;;;;;;;5080595;28;28404;-85
2022/05/18 11:48:58;;;;;;;;;;;;;;;;;;5077378;28;28784;-88
2022/05/18 11:51:23;;;;;;;;;;;;;;;;;;5076802;28;29234;-86
2022/05/18 11:53:48;;;;;;;;;;;;;;;;;;5078305;28;28466;-92
2022/05/18 11:56:13;;;;;;;;;;;;;;;;;;5079235;28;27733;-89
2022/05/18 11:58:48;;;;;;;;;;;;;;;;;;5078299;28;28372;-89
2022/05/18 12:01:13;;;;;;;;;;;;;;;;;;5059910;28;30560;-90
2022/05/18 12:03:38;;;;;;;;;;;;;;;;;;5078684;28;28327;-93
2022/05/18 12:06:03;;;;;;;;;;;;;;;;;;5077415;28;28509;-93
2022/05/18 12:08:29;;;;;;;;;;;;;;;;;;5079538;28;28359;-94
2022/05/18 12:10:54;;;;;;;;;;;;;;;;;;5058280;28;30073;-96
2022/05/18 12:13:19;;;;;;;;;;;;;;;;;;5058715;28;28848;-95
2022/05/18 12:15:44;;;;;;;;;;;;;;;;;;5079227;28;28477;-96
2022/05/18 12:18:09;;;;;;;;;;;;;;;;;;5058094;28;28460;-94
2022/05/18 12:20:34;;;;;;;;;;;;;;;;;;5075979;28;28620;-89
2022/05/18 12:22:59;;;;;;;;;;;;;;;;;;5080180;28;28432;-91
2022/05/18 12:25:24;;;;;;;;;;;;;;;;;;5080352;28;28221;-89
2022/05/18 12:27:50;;;;;;;;;;;;;;;;;;5076008;28;28406;-93
2022/05/18 12:30:15;;;;;;;;;;;;;;;;;;5057952;28;29824;-89
2022/05/18 12:32:40;;;;;;;;;;;;;;;;;;5076249;28;28455;-90
2022/05/18 12:35:08;;;;;;;;;;;;;;;;;;5076264;28;28363;-90
2022/05/18 12:37:33;;;;;;;;;;;;;;;;;;5057971;28;28546;-89
2022/05/18 12:39:58;;;;;;;;;;;;;;;;;;5075893;28;29441;-93
2022/05/18 12:42:23;;;;;;;;;;;;;;;;;;5058415;28;29671;-93
2022/05/18 12:44:48;;;;;;;;;;;;;;;;;;5074326;28;28695;-91
2022/05/18 12:47:14;;;;;;;;;;;;;;;;;;5056960;28;28636;-89
2022/05/18 12:49:39;;;;;;;;;;;;;;;;;;5075390;28;28579;-89
2022/05/18 12:52:05;;;;;;;;;;;;;;;;;;5075100;28;28505;-91
2022/05/18 12:54:30;;;;;;;;;;;;;;;;;;5075319;28;28486;-92
2022/05/18 12:56:55;;;;;;;;;;;;;;;;;;5075193;28;28473;-90
2022/05/18 12:59:20;;;;;;;;;;;;;;;;;;5056982;28;28742;-89
2022/05/18 13:01:45;;;;;;;;;;;;;;;;;;5075143;28;28839;-91
2022/05/18 13:04:10;;;;;;;;;;;;;;;;;;5074878;28;28411;-89
2022/05/18 13:06:35;;;;;;;;;;;;;;;;;;5074737;28;35275;-88
2022/05/18 13:09:00;;;;;;;;;;;;;;;;;;5075185;28;28492;-88
2022/05/18 13:11:28;;;;;;;;;;;;;;;;;;5075164;28;28541;-89
2022/05/18 13:13:53;;;;;;;;;;;;;;;;;;5056799;28;28478;-90
2022/05/18 13:16:18;;;;;;;;;;;;;;;;;;5075267;28;28427;-90
2022/05/18 13:18:43;;;;;;;;;;;;;;;;;;5074967;28;28395;-92
2022/05/18 13:21:08;;;;;;;;;;;;;;;;;;5075402;28;28410;-87
2022/05/18 13:23:33;;;;;;;;;;;;;;;;;;5075677;28;28387;-88
2022/05/18 13:25:59;;;;;;;;;;;;;;;;;;5075638;28;28322;-93
2022/05/18 13:28:24;;;;;;;;;;;;;;;;;;5075604;28;28432;-87
2022/05/18 13:30:49;;;;;;;;;;;;;;;;;;5075360;28;28826;-84
2022/05/18 13:33:17;;;;;;;;;;;;;;;;;;5075146;28;28367;-85
2022/05/18 13:35:42;;;;;;;;;;;;;;;;;;5075606;28;28292;-85
2022/05/18 13:38:07;;;;;;;;;;;;;;;;;;5075085;28;28488;-86
2022/05/18 13:40:32;;;;;;;;;;;;;;;;;;5075552;28;28379;-89
2022/05/18 13:42:58;;;;;;;;;;;;;;;;;;5075191;28;27851;-90
2022/05/18 13:45:23;;;;;;;;;;;;;;;;;;5057107;28;28616;-89
2022/05/18 13:47:48;;;;;;;;;;;;;;;;;;5056578;28;29866;-89
2022/05/18 13:50:13;;;;;;;;;;;;;;;;;;5074808;28;28820;-89
2022/05/18 13:52:41;;;;;;;;;;;;;;;;;;5076004;28;28378;-94
2022/05/18 13:57:50;;;;;;;;;;;;;;;;;;5077136;28;28516;-95
2022/05/18 14:00:15;;;;;;;;;;;;;;;;;;5057643;28;29107;-95
2022/05/18 14:05:18;;;;;;;;;;;;;;;;;;4355187;22;29383;-96
2022/05/18 14:07:53;;;;;;;;;;;;;;;;;;;;;
2022/05/18 14:10:30;;;;;;;;;;;;;;;;;;5080356;28;55458;-96
2022/05/18 14:12:55;;;;;;;;;;;;;;;;;;5069732;28;28272;-95
2022/05/18 14:15:20;;;;;;;;;;;;;;;;;;5058633;28;28289;-94
2022/05/18 14:23:24;;;;;;;;;;;;;;;;;;5009757;28;27860;-96
2022/05/18 14:28:24;;;;;;;;;;;;;;;;;;5375019;22;29591;-93
2022/05/18 14:30:49;;;;;;;;;;;;;;;;;;5059190;28;28441;-94
2022/05/18 14:33:14;;;;;;;;;;;;;;;;;;5069272;28;28525;-95
2022/05/18 14:35:40;;;;;;;;;;;;;;;;;;5077193;28;28430;-93
2022/05/18 14:38:05;;;;;;;;;;;;;;;;;;5076664;28;29952;-93
2022/05/18 14:40:30;;;;;;;;;;;;;;;;;;5076873;28;28375;-93
2022/05/18 14:42:55;;;;;;;;;;;;;;;;;;5076968;28;28323;-90
2022/05/18 14:45:20;;;;;;;;;;;;;;;;;;5077904;28;28347;-91
2022/05/18 14:47:45;;;;;;;;;;;;;;;;;;5076687;28;29843;-90
2022/05/18 14:50:11;;;;;;;;;;;;;;;;;;5077735;28;28426;-90
2022/05/18 14:52:36;;;;;;;;;;;;;;;;;;5077790;28;28235;-89
2022/05/18 14:55:01;;;;;;;;;;;;;;;;;;5077984;28;28300;-92
2022/05/18 14:57:26;;;;;;;;;;;;;;;;;;5076351;28;30027;-90
2022/05/18 14:59:51;;;;;;;;;;;;;;;;;;5077937;28;28392;-88
2022/05/18 15:02:16;;;;;;;;;;;;;;;;;;5078139;28;28245;-91
2022/05/18 15:04:41;;;;;;;;;;;;;;;;;;5076121;28;28666;-91
2022/05/18 15:07:07;;;;;;;;;;;;;;;;;;5077426;28;28409;-90
2022/05/18 15:09:32;;;;;;;;;;;;;;;;;;5077343;28;28387;-87
2022/05/18 15:11:57;;;;;;;;;;;;;;;;;;5077462;28;28283;-88
2022/05/18 15:14:23;;;;;;;;;;;;;;;;;;5076430;28;28435;-87
2022/05/18 15:16:57;;;;;;;;;;;;;;;;;;5077618;28;28496;-94
2022/05/18 15:19:23;;;;;;;;;;;;;;;;;;5078476;28;28251;-92
2022/05/18 15:21:48;;;;;;;;;;;;;;;;;;5076463;28;28390;-89
2022/05/18 15:24:15;;;;;;;;;;;;;;;;;;5077131;28;28304;-86
2022/05/18 15:26:40;;;;;;;;;;;;;;;;;;5076242;28;29292;-87
2022/05/18 15:29:05;;;;;;;;;;;;;;;;;;5075152;28;28256;-92
2022/05/18 15:31:32;;;;;;;;;;;;;;;;;;5077627;28;27763;-87
2022/05/18 15:33:57;;;;;;;;;;;;;;;;;;5061973;28;28481;-87
2022/05/18 15:36:22;;;;;;;;;;;;;;;;;;5075996;28;28551;-89
2022/05/18 15:38:49;;;;;;;;;;;;;;;;;;5092139;28;28446;-91
2022/05/18 15:41:14;;;;;;;;;;;;;;;;;;5076666;28;28427;-88
2022/05/18 15:43:40;;;;;;;;;;;;;;;;;;5076673;28;28436;-90
2022/05/18 15:46:05;;;;;;;;;;;;;;;;;;5076720;28;28462;-88
2022/05/18 15:48:30;;;;;;;;;;;;;;;;;;5075760;28;28555;-90
2022/05/18 15:50:55;;;;;;;;;;;;;;;;;;5076516;28;28470;-88
2022/05/18 15:53:20;;;;;;;;;;;;;;;;;;5076281;28;28487;-90
2022/05/18 15:55:46;;;;;;;;;;;;;;;;;;5076033;28;28441;-88
2022/05/18 15:58:11;;;;;;;;;;;;;;;;;;5074947;28;28496;-90
2022/05/18 16:00:37;;;;;;;;;;;;;;;;;;5075967;28;28478;-92
2022/05/18 16:03:02;;;;;;;;;;;;;;;;;;5077181;28;28527;-90
2022/05/18 16:05:27;;;;;;;;;;;;;;;;;;5062381;28;29686;-94
2022/05/18 16:07:55;;;;;;;;;;;;;;;;;;5076833;28;28996;-87
2022/05/18 16:10:21;;;;;;;;;;;;;;;;;;5076785;28;28581;-90
2022/05/18 16:12:46;;;;;;;;;;;;;;;;;;5076419;28;28406;-91
2022/05/18 16:15:11;;;;;;;;;;;;;;;;;;5075786;28;29174;-89
2022/05/18 16:17:36;;;;;;;;;;;;;;;;;;5075895;28;28385;-90
2022/05/18 16:20:02;;;;;;;;;;;;;;;;;;5076280;28;28445;-90
2022/05/18 16:22:27;;;;;;;;;;;;;;;;;;5076159;28;28531;-90
2022/05/18 16:24:52;;;;;;;;;;;;;;;;;;5075325;28;28508;-89
2022/05/18 16:27:17;;;;;;;;;;;;;;;;;;5075846;28;28497;-89
2022/05/18 16:29:42;;;;;;;;;;;;;;;;;;5075729;28;28489;-89
2022/05/18 16:32:07;;;;;;;;;;;;;;;;;;5057572;28;28681;-89
2022/05/18 16:34:32;;;;;;;;;;;;;;;;;;5075543;28;29481;-89
2022/05/18 16:36:57;;;;;;;;;;;;;;;;;;5075888;28;27871;-86
2022/05/18 16:39:22;;;;;;;;;;;;;;;;;;5075416;28;28540;-88
2022/05/18 16:41:48;;;;;;;;;;;;;;;;;;5075914;28;27833;-88
2022/05/18 16:44:13;;;;;;;;;;;;;;;;;;5075712;28;28458;-87
2022/05/18 16:46:38;;;;;;;;;;;;;;;;;;5075459;28;28506;-88
2022/05/18 16:49:03;;;;;;;;;;;;;;;;;;5076553;28;28399;-87
2022/05/18 16:51:28;;;;;;;;;;;;;;;;;;5075790;28;28493;-89
2022/05/18 16:53:53;;;;;;;;;;;;;;;;;;5075292;28;28872;-87
2022/05/18 16:56:18;;;;;;;;;;;;;;;;;;5075437;28;28323;-87
2022/05/18 16:58:46;;;;;;;;;;;;;;;;;;5075704;28;28442;-95
2022/05/18 17:01:11;;;;;;;;;;;;;;;;;;5075382;28;28499;-88
2022/05/18 17:03:39;;;;;;;;;;;;;;;;;;5075843;28;28410;-91
2022/05/18 17:06:07;;;;;;;;;;;;;;;;;;5075243;28;28556;-88